createdAt,value
2023-05-12T03:01:40.900Z,8.00
2023-05-12T03:04:08.038Z,8.10
2023-05-12T03:06:35.167Z,8.20
2023-05-12T03:09:02.560Z,8.30
2023-05-12T03:11:29.752Z,8.20
2023-05-12T03:13:56.919Z,8.10
2023-05-12T03:16:24.123Z,8.20
2023-05-12T03:18:51.394Z,8.20
2023-05-12T03:21:18.628Z,8.20
2023-05-12T03:23:45.750Z,8.20
2023-05-12T03:26:12.923Z,8.20
2023-05-12T03:28:40.115Z,8.10
2023-05-12T03:31:07.296Z,8.10
2023-05-12T03:33:34.486Z,8.10
2023-05-12T03:36:01.625Z,8.10
2023-05-12T03:38:29.053Z,8.00
2023-05-12T03:41:06.301Z,8.00
2023-05-12T03:43:33.605Z,8.00
2023-05-12T03:46:00.887Z,8.00
2023-05-12T03:48:28.149Z,8.00
2023-05-12T03:50:55.349Z,7.90
2023-05-12T03:53:22.529Z,8.00
2023-05-12T03:55:49.707Z,8.00
2023-05-12T03:58:17.441Z,8.10
2023-05-12T04:00:44.896Z,8.20
2023-05-12T04:03:12.120Z,8.20
2023-05-12T04:05:39.580Z,8.30
2023-05-12T04:08:06.852Z,8.10
2023-05-12T04:10:38.107Z,8.10
2023-05-12T04:13:05.284Z,8.10
2023-05-12T04:15:32.483Z,8.20
2023-05-12T04:17:59.675Z,8.20
2023-05-12T04:20:26.868Z,8.20
2023-05-12T04:22:54.046Z,8.20
2023-05-12T04:25:21.400Z,8.40
2023-05-12T04:27:48.565Z,8.40
2023-05-12T04:30:16.686Z,8.30
2023-05-12T04:32:43.890Z,8.20
2023-05-12T04:35:11.290Z,8.30
2023-05-12T04:37:38.424Z,8.40
2023-05-12T04:40:07.313Z,8.60
2023-05-12T04:42:35.226Z,8.70
2023-05-12T04:45:02.473Z,8.60
2023-05-12T04:47:29.779Z,8.70
2023-05-12T04:49:57.045Z,8.70
2023-05-12T04:52:24.960Z,8.90
2023-05-12T04:54:52.475Z,9.10
2023-05-12T04:57:19.698Z,9.30
2023-05-12T04:59:46.843Z,9.40
2023-05-12T05:02:14.161Z,9.50
2023-05-12T05:04:41.379Z,9.50
2023-05-12T05:07:08.580Z,9.60
2023-05-12T05:09:36.748Z,9.70
2023-05-12T05:12:04.223Z,9.80
2023-05-12T05:14:31.337Z,9.70
2023-05-12T05:16:59.723Z,10.00
2023-05-12T05:19:40.838Z,10.20
2023-05-12T05:22:14.426Z,10.50
2023-05-12T05:24:41.577Z,10.60
2023-05-12T05:27:08.916Z,10.90
2023-05-12T05:29:36.042Z,11.10
2023-05-12T05:32:04.328Z,11.00
2023-05-12T05:34:31.798Z,11.20
2023-05-12T05:36:58.928Z,11.20
2023-05-12T05:39:26.261Z,11.10
2023-05-12T05:41:53.450Z,11.10
2023-05-12T05:44:20.587Z,11.00
2023-05-12T05:46:47.765Z,11.00
2023-05-12T05:49:14.940Z,11.00
2023-05-12T05:51:42.096Z,11.20
2023-05-12T05:54:09.211Z,11.30
2023-05-12T05:56:36.443Z,11.10
2023-05-12T05:59:05.018Z,10.90
2023-05-12T06:01:32.928Z,11.10
2023-05-12T06:04:00.420Z,11.20
2023-05-12T06:06:29.420Z,11.50
2023-05-12T06:08:56.733Z,11.50
2023-05-12T06:11:23.906Z,11.40
2023-05-12T06:13:51.050Z,11.70
2023-05-12T06:16:18.372Z,12.00
2023-05-12T06:18:45.590Z,12.30
2023-05-12T06:21:12.823Z,12.00
2023-05-12T06:23:39.955Z,12.20
2023-05-12T06:26:07.863Z,12.40
2023-05-12T06:28:35.041Z,12.20
2023-05-12T06:31:02.210Z,12.50
2023-05-12T06:33:29.366Z,13.00
2023-05-12T06:35:56.560Z,13.40
2023-05-12T06:38:23.711Z,13.90
2023-05-12T06:40:50.876Z,14.30
2023-05-12T06:43:18.078Z,14.60
2023-05-12T06:45:45.312Z,14.90
2023-05-12T06:48:12.553Z,15.40
2023-05-12T06:50:39.731Z,16.60
2023-05-12T06:53:08.089Z,16.80
2023-05-12T06:55:35.252Z,17.90
2023-05-12T06:58:02.996Z,18.40
2023-05-12T07:00:30.150Z,19.00
2023-05-12T07:02:57.445Z,19.00
2023-05-12T07:05:24.878Z,20.00
2023-05-12T07:07:52.270Z,20.50
2023-05-12T07:10:21.095Z,20.90
2023-05-12T07:12:48.239Z,20.40
2023-05-12T07:15:15.425Z,20.90
2023-05-12T07:17:42.625Z,20.50
2023-05-12T07:20:10.011Z,20.60
2023-05-12T07:22:38.866Z,21.10
2023-05-12T07:25:08.035Z,21.20
2023-05-12T07:27:35.277Z,21.70
2023-05-12T07:30:02.613Z,21.90
2023-05-12T07:32:29.926Z,21.90
2023-05-12T07:34:57.138Z,21.90
2023-05-12T07:37:24.352Z,21.40
2023-05-12T07:39:51.583Z,21.20
2023-05-12T07:42:18.782Z,20.80
2023-05-12T07:44:45.980Z,20.80
2023-05-12T07:47:13.211Z,20.80
2023-05-12T07:49:40.626Z,21.40
2023-05-12T07:52:07.973Z,22.30
2023-05-12T07:54:35.287Z,21.60
2023-05-12T07:57:02.428Z,21.90
2023-05-12T07:59:29.528Z,22.20
2023-05-12T08:01:56.775Z,22.40
2023-05-12T08:04:24.043Z,22.60
2023-05-12T08:06:51.241Z,21.40
2023-05-12T08:09:18.394Z,20.10
2023-05-12T08:11:48.768Z,19.10
2023-05-12T08:14:17.960Z,18.10
2023-05-12T08:16:46.498Z,17.20
2023-05-12T08:19:14.154Z,16.70
2023-05-12T08:21:41.345Z,16.50
2023-05-12T08:24:08.735Z,16.50
2023-05-12T08:26:35.860Z,16.20
2023-05-12T08:29:04.703Z,15.30
2023-05-12T08:31:32.529Z,15.60
2023-05-12T08:34:09.808Z,15.70
2023-05-12T08:36:39.824Z,15.80
2023-05-12T08:39:10.092Z,15.80
2023-05-12T08:41:45.054Z,15.90
2023-05-12T08:44:13.176Z,16.00
2023-05-12T08:46:40.839Z,15.70
2023-05-12T08:49:13.464Z,15.90
2023-05-12T08:51:42.205Z,16.10
2023-05-12T08:54:11.862Z,16.20
2023-05-12T08:59:13.423Z,16.10
2023-05-12T09:01:43.034Z,16.00
2023-05-12T09:04:10.647Z,16.10
2023-05-12T09:06:37.915Z,16.10
2023-05-12T09:09:05.090Z,15.90
2023-05-12T09:11:32.491Z,15.60
2023-05-12T09:14:09.960Z,15.50
2023-05-12T09:16:43.893Z,15.30
2023-05-12T09:19:11.312Z,15.20
2023-05-12T09:21:38.570Z,15.20
2023-05-12T09:24:07.311Z,15.00
2023-05-12T09:26:52.163Z,15.00
2023-05-12T09:29:30.825Z,14.80
2023-05-12T09:32:01.738Z,14.80
2023-05-12T09:34:30.529Z,14.80
2023-05-12T09:37:03.344Z,14.80
2023-05-12T09:39:30.596Z,14.50
2023-05-12T09:42:00.688Z,14.60
2023-05-12T09:44:35.497Z,14.70
2023-05-12T09:47:10.467Z,14.60
2023-05-12T09:49:41.717Z,14.60
2023-05-12T09:52:08.888Z,14.60
2023-05-12T09:54:39.782Z,14.60
2023-05-12T09:57:09.693Z,14.80
2023-05-12T09:59:38.538Z,14.80
2023-05-12T10:02:08.810Z,14.70
2023-05-12T10:04:52.520Z,14.70
2023-05-12T10:07:22.835Z,14.70
2023-05-12T10:09:50.409Z,14.70
2023-05-12T10:12:17.727Z,14.70
2023-05-12T10:14:45.821Z,14.50
2023-05-12T10:17:14.029Z,14.50
2023-05-12T10:19:42.146Z,14.50
2023-05-12T10:22:11.366Z,14.40
2023-05-12T10:24:40.874Z,14.30
2023-05-12T10:27:08.680Z,14.20
2023-05-12T10:29:37.687Z,14.10
2023-05-12T10:32:06.401Z,13.90
2023-05-12T10:34:36.668Z,13.80
2023-05-12T10:37:10.720Z,13.80
2023-05-12T10:39:47.280Z,13.50
2023-05-12T10:42:17.570Z,13.40
2023-05-12T10:44:55.638Z,13.30
2023-05-12T10:47:36.992Z,13.30
2023-05-12T10:50:04.437Z,13.40
2023-05-12T10:52:31.673Z,13.40
2023-05-12T10:55:04.051Z,13.40
2023-05-12T10:57:32.344Z,13.50
2023-05-12T11:00:01.341Z,13.60
2023-05-12T11:02:35.919Z,13.60
2023-05-12T11:05:12.467Z,13.50
2023-05-12T11:07:41.829Z,13.40
2023-05-12T11:10:11.219Z,13.30
2023-05-12T11:12:38.549Z,13.50
2023-05-12T11:15:06.814Z,13.50
2023-05-12T11:17:37.706Z,13.70
2023-05-12T11:20:05.448Z,13.70
2023-05-12T11:22:33.545Z,13.80
2023-05-12T11:25:10.156Z,13.90
2023-05-12T11:27:42.438Z,14.00
2023-05-12T11:30:11.143Z,14.10
2023-05-12T11:32:38.429Z,13.90
2023-05-12T11:35:13.663Z,14.10
2023-05-12T11:37:42.125Z,14.20
2023-05-12T11:40:14.332Z,14.30
2023-05-12T11:42:49.155Z,14.30
2023-05-12T11:45:24.697Z,14.30
2023-05-12T11:47:53.494Z,14.40
2023-05-12T11:50:22.827Z,14.30
2023-05-12T11:52:51.345Z,14.60
2023-05-12T11:55:23.838Z,14.80
2023-05-12T11:57:59.472Z,15.00
2023-05-12T12:00:32.747Z,15.10
2023-05-12T12:03:14.148Z,15.10
2023-05-12T12:05:43.190Z,15.20
2023-05-12T12:08:14.094Z,15.50
2023-05-12T12:10:45.631Z,16.00
2023-05-12T12:13:19.205Z,16.00
2023-05-12T12:15:46.410Z,16.10
2023-05-12T12:18:13.822Z,16.10
2023-05-12T12:20:41.069Z,15.90
2023-05-12T12:23:08.257Z,15.90
2023-05-12T12:25:35.676Z,15.80
2023-05-12T12:28:02.906Z,15.80
2023-05-12T12:30:30.159Z,15.90
2023-05-12T12:32:57.390Z,15.80
2023-05-12T12:35:24.871Z,16.20
2023-05-12T12:37:52.382Z,16.40
2023-05-12T12:40:20.081Z,16.40
2023-05-12T12:42:47.810Z,16.40
2023-05-12T12:45:15.131Z,16.00
2023-05-12T12:47:42.498Z,15.90
2023-05-12T12:50:10.610Z,15.90
2023-05-12T12:52:38.636Z,16.10
2023-05-12T12:55:07.125Z,16.40
2023-05-12T12:57:34.796Z,16.60
2023-05-12T13:00:03.258Z,17.00
2023-05-12T13:02:30.637Z,17.00
2023-05-12T13:04:57.888Z,17.10
2023-05-12T13:07:25.044Z,17.20
2023-05-12T13:09:52.233Z,17.40
2023-05-12T13:12:19.411Z,17.00
2023-05-12T13:14:46.678Z,17.00
2023-05-12T13:17:13.946Z,17.00
2023-05-12T13:19:41.940Z,16.90
2023-05-12T13:22:09.444Z,17.00
2023-05-12T13:24:36.977Z,17.30
2023-05-12T13:27:08.244Z,17.60
2023-05-12T13:29:36.334Z,17.90
2023-05-12T13:32:03.794Z,18.10
2023-05-12T13:34:30.949Z,18.10
2023-05-12T13:36:58.175Z,18.00
2023-05-12T13:39:25.443Z,18.00
2023-05-12T13:41:52.558Z,17.60
2023-05-12T13:44:19.760Z,17.40
2023-05-12T13:46:47.113Z,17.40
2023-05-12T13:49:14.464Z,17.50
2023-05-12T13:51:41.628Z,17.60
2023-05-12T13:54:08.834Z,17.10
2023-05-12T13:56:35.981Z,17.10
2023-05-12T13:59:03.622Z,16.90
2023-05-12T14:01:33.728Z,16.80
2023-05-12T14:04:00.981Z,16.70
2023-05-12T14:06:28.220Z,16.50
2023-05-12T14:08:55.434Z,16.40
2023-05-12T14:11:22.950Z,16.30
2023-05-12T14:13:50.088Z,16.40
2023-05-12T14:16:17.305Z,16.60
2023-05-12T14:18:44.696Z,16.40
2023-05-12T14:21:11.975Z,16.20
2023-05-12T14:23:39.223Z,16.00
2023-05-12T14:26:06.583Z,16.20
2023-05-12T14:28:34.134Z,16.20
2023-05-12T14:31:03.101Z,16.10
2023-05-12T14:33:30.367Z,16.10
2023-05-12T14:36:06.500Z,16.20
2023-05-12T14:38:34.257Z,16.20
2023-05-12T14:41:01.541Z,16.30
2023-05-12T14:43:28.741Z,16.30
2023-05-12T14:45:55.955Z,16.30
2023-05-12T14:48:25.975Z,16.20
2023-05-12T14:50:54.272Z,16.20
2023-05-12T14:53:22.168Z,16.10
2023-05-12T14:55:49.846Z,16.00
2023-05-12T14:58:21.842Z,16.00
2023-05-12T15:00:50.949Z,15.70
2023-05-12T15:03:18.571Z,15.70
2023-05-12T15:06:04.857Z,15.60
2023-05-12T15:08:33.900Z,15.60
2023-05-12T15:11:01.049Z,15.60
2023-05-12T15:13:28.231Z,15.40
2023-05-12T15:15:56.825Z,15.40
2023-05-12T15:18:24.384Z,15.30
2023-05-12T15:20:51.942Z,15.40
2023-05-12T15:23:19.113Z,15.40
2023-05-12T15:25:46.276Z,15.40
2023-05-12T15:28:13.479Z,15.30
2023-05-12T15:30:40.707Z,15.20
2023-05-12T15:33:07.972Z,15.20
2023-05-12T15:35:35.382Z,15.10
2023-05-12T15:38:02.549Z,15.10
2023-05-12T15:40:31.009Z,15.20
2023-05-12T15:42:59.998Z,15.20
2023-05-12T15:45:27.187Z,15.20
2023-05-12T15:47:54.632Z,15.20
2023-05-12T15:50:22.986Z,15.40
2023-05-12T15:52:50.916Z,15.50
2023-05-12T15:55:18.462Z,15.60
2023-05-12T15:57:45.827Z,15.70
2023-05-12T16:00:13.662Z,15.70
2023-05-12T16:02:41.088Z,15.50
2023-05-12T16:05:09.673Z,15.30
2023-05-12T16:07:36.957Z,15.30
2023-05-12T16:10:04.930Z,15.20
2023-05-12T16:12:32.274Z,15.20
2023-05-12T16:14:59.526Z,15.00
2023-05-12T16:17:27.751Z,15.00
2023-05-12T16:19:56.763Z,14.90
2023-05-12T16:22:24.105Z,14.80
2023-05-12T16:24:51.370Z,14.60
2023-05-12T16:27:18.589Z,14.50
2023-05-12T16:29:47.288Z,14.60
2023-05-12T16:32:14.532Z,14.60
2023-05-12T16:34:41.772Z,14.50
2023-05-12T16:37:09.178Z,14.30
2023-05-12T16:39:36.675Z,14.30
2023-05-12T16:42:04.077Z,14.40
2023-05-12T16:44:31.251Z,14.20
2023-05-12T16:46:58.759Z,13.90
2023-05-12T16:49:26.038Z,13.80
2023-05-12T16:51:53.233Z,13.90
2023-05-12T16:54:20.427Z,13.80
2023-05-12T16:56:48.367Z,13.80
2023-05-12T16:59:15.695Z,13.80
2023-05-12T17:01:43.118Z,13.90
2023-05-12T17:04:12.373Z,13.90
2023-05-12T17:06:39.606Z,13.90
2023-05-12T17:09:06.835Z,13.90
2023-05-12T17:11:34.012Z,14.00
2023-05-12T17:14:01.174Z,13.90
2023-05-12T17:16:28.676Z,13.80
2023-05-12T17:21:26.757Z,14.00
2023-05-12T17:23:54.248Z,14.00
2023-05-12T17:26:21.475Z,13.90
2023-05-12T17:28:48.655Z,13.90
2023-05-12T17:31:15.951Z,13.80
2023-05-12T17:33:43.192Z,13.80
2023-05-12T17:36:13.158Z,13.80
2023-05-12T17:38:41.293Z,13.70
2023-05-12T17:41:08.610Z,13.60
2023-05-12T17:43:35.871Z,13.60
2023-05-12T17:46:04.891Z,13.60
2023-05-12T17:48:33.254Z,13.70
2023-05-12T17:51:03.047Z,13.60
2023-05-12T17:53:31.287Z,13.50
2023-05-12T17:55:59.053Z,13.50
2023-05-12T17:58:26.355Z,13.50
2023-05-12T18:00:54.095Z,13.50
2023-05-12T18:03:23.814Z,13.50
2023-05-12T18:05:52.828Z,13.40
2023-05-12T18:08:31.085Z,13.40
2023-05-12T18:10:58.460Z,13.30
2023-05-12T18:13:25.782Z,13.30
2023-05-12T18:15:53.101Z,13.10
2023-05-12T18:18:20.505Z,12.90
2023-05-12T18:20:47.864Z,13.00
2023-05-12T18:23:15.019Z,13.00
2023-05-12T18:25:42.905Z,13.00
2023-05-12T18:28:10.172Z,12.90
2023-05-12T18:30:37.429Z,12.90
2023-05-12T18:33:04.867Z,12.80
2023-05-12T18:35:32.191Z,12.70
2023-05-12T18:37:59.358Z,12.60
2023-05-12T18:40:26.982Z,12.60
2023-05-12T18:42:54.234Z,12.50
2023-05-12T18:45:22.867Z,12.60
2023-05-12T18:47:50.353Z,12.50
2023-05-12T18:50:18.014Z,12.40
2023-05-12T18:52:45.246Z,12.40
2023-05-12T18:55:12.480Z,12.40
2023-05-12T18:57:39.643Z,12.40
2023-05-12T19:00:07.504Z,12.30
2023-05-12T19:02:34.813Z,12.30
2023-05-12T19:05:02.323Z,12.20
2023-05-12T19:07:29.591Z,12.20
2023-05-12T19:09:56.708Z,12.10
2023-05-12T19:12:23.903Z,12.10
2023-05-12T19:14:51.074Z,12.10
2023-05-12T19:17:19.229Z,12.10
2023-05-12T19:19:46.637Z,12.10
2023-05-12T19:22:13.836Z,12.00
2023-05-12T19:24:41.114Z,11.90
2023-05-12T19:27:08.405Z,11.80
2023-05-12T19:29:35.725Z,11.80
2023-05-12T19:32:03.206Z,11.80
2023-05-12T19:34:31.524Z,11.80
2023-05-12T19:37:03.742Z,11.90
2023-05-12T19:39:30.952Z,11.90
2023-05-12T19:41:58.096Z,12.00
2023-05-12T19:44:25.408Z,12.10
2023-05-12T19:46:52.776Z,12.00
2023-05-12T19:49:19.970Z,12.00
2023-05-12T19:51:48.657Z,12.00
2023-05-12T19:54:16.154Z,12.00
2023-05-12T19:56:43.341Z,11.90
2023-05-12T19:59:10.544Z,11.90
2023-05-12T20:01:37.836Z,11.90
2023-05-12T20:04:05.131Z,11.90
2023-05-12T20:06:32.326Z,11.80
2023-05-12T20:08:59.503Z,11.80
2023-05-12T20:11:27.092Z,11.70
2023-05-12T20:13:54.325Z,11.70
2023-05-12T20:16:21.749Z,11.60
2023-05-12T20:18:49.013Z,11.60
2023-05-12T20:21:16.499Z,11.70
2023-05-12T20:23:43.726Z,11.70
2023-05-12T20:26:10.977Z,11.70
2023-05-12T20:28:38.505Z,11.60
2023-05-12T20:31:05.848Z,11.60
2023-05-12T20:33:33.042Z,11.60
2023-05-12T20:36:00.251Z,11.60
2023-05-12T20:38:27.502Z,11.70
2023-05-12T20:40:54.747Z,11.80
2023-05-12T20:43:21.951Z,11.80
2023-05-12T20:45:49.239Z,11.90
2023-05-12T20:48:16.472Z,11.90
2023-05-12T20:50:43.787Z,11.70
2023-05-12T20:53:11.003Z,11.70
2023-05-12T20:55:40.003Z,11.70
2023-05-12T20:58:07.177Z,11.70
